sensor_id;sensor_type;location;lat;lon;timestamp;P1;durP1;ratioP1;P2;durP2;ratioP2
19808;SDS011;48538;32.784;-96.802;2023-08-20T00:01:14;5.43;;;2.72;;
19808;SDS011;48538;32.784;-96.802;2023-08-20T00:03:52;6.80;;;2.50;;
19808;SDS011;48538;32.784;-96.802;2023-08-20T00:06:19;4.53;;;2.50;;
19808;SDS011;48538;32.784;-96.802;2023-08-20T00:08:46;7.25;;;2.35;;
19808;SDS011;48538;32.784;-96.802;2023-08-20T00:11:13;7.00;;;2.72;;
19808;SDS011;48538;32.784;-96.802;2023-08-20T00:13:39;6.03;;;2.53;;
19808;SDS011;48538;32.784;-96.802;2023-08-20T00:16:06;5.00;;;2.80;;
19808;SDS011;48538;32.784;-96.802;2023-08-20T00:18:34;5.72;;;2.83;;
19808;SDS011;48538;32.784;-96.802;2023-08-20T00:21:00;5.32;;;2.55;;
19808;SDS011;48538;32.784;-96.802;2023-08-20T00:23:27;5.53;;;2.80;;
19808;SDS011;48538;32.784;-96.802;2023-08-20T00:25:53;5.95;;;2.95;;
19808;SDS011;48538;32.784;-96.802;2023-08-20T00:28:20;6.70;;;2.97;;
19808;SDS011;48538;32.784;-96.802;2023-08-20T00:30:46;7.88;;;2.70;;
19808;SDS011;48538;32.784;-96.802;2023-08-20T00:33:14;4.35;;;2.42;;
19808;SDS011;48538;32.784;-96.802;2023-08-20T00:35:40;5.28;;;2.40;;
19808;SDS011;48538;32.784;-96.802;2023-08-20T00:38:07;9.13;;;2.90;;
19808;SDS011;48538;32.784;-96.802;2023-08-20T00:40:33;8.48;;;2.78;;
19808;SDS011;48538;32.784;-96.802;2023-08-20T00:42:59;4.45;;;2.65;;
19808;SDS011;48538;32.784;-96.802;2023-08-20T00:45:26;7.25;;;2.60;;
19808;SDS011;48538;32.784;-96.802;2023-08-20T00:47:52;7.93;;;2.95;;
19808;SDS011;48538;32.784;-96.802;2023-08-20T00:50:19;5.40;;;2.55;;
19808;SDS011;48538;32.784;-96.802;2023-08-20T00:52:46;5.50;;;2.88;;
19808;SDS011;48538;32.784;-96.802;2023-08-20T00:55:13;7.93;;;2.90;;
19808;SDS011;48538;32.784;-96.802;2023-08-20T00:57:40;5.45;;;3.03;;
19808;SDS011;48538;32.784;-96.802;2023-08-20T01:00:07;4.18;;;2.72;;
19808;SDS011;48538;32.784;-96.802;2023-08-20T01:02:36;7.60;;;2.53;;
19808;SDS011;48538;32.784;-96.802;2023-08-20T01:05:03;5.00;;;2.58;;
19808;SDS011;48538;32.784;-96.802;2023-08-20T01:10:33;9.75;;;3.03;;
19808;SDS011;48538;32.784;-96.802;2023-08-20T01:13:00;6.35;;;2.50;;
19808;SDS011;48538;32.784;-96.802;2023-08-20T01:15:27;7.18;;;2.53;;
19808;SDS011;48538;32.784;-96.802;2023-08-20T01:17:53;6.95;;;2.83;;
19808;SDS011;48538;32.784;-96.802;2023-08-20T01:20:19;5.63;;;3.30;;
19808;SDS011;48538;32.784;-96.802;2023-08-20T01:22:53;6.78;;;3.33;;
19808;SDS011;48538;32.784;-96.802;2023-08-20T01:30:57;8.35;;;2.80;;
19808;SDS011;48538;32.784;-96.802;2023-08-20T01:33:26;4.93;;;2.97;;
19808;SDS011;48538;32.784;-96.802;2023-08-20T01:35:53;6.57;;;3.05;;
19808;SDS011;48538;32.784;-96.802;2023-08-20T01:38:21;7.95;;;3.10;;
19808;SDS011;48538;32.784;-96.802;2023-08-20T01:40:47;8.48;;;3.42;;
19808;SDS011;48538;32.784;-96.802;2023-08-20T01:43:14;6.43;;;3.17;;
19808;SDS011;48538;32.784;-96.802;2023-08-20T01:45:41;5.60;;;3.13;;
19808;SDS011;48538;32.784;-96.802;2023-08-20T01:48:07;4.22;;;3.10;;
19808;SDS011;48538;32.784;-96.802;2023-08-20T01:50:34;4.93;;;3.00;;
19808;SDS011;48538;32.784;-96.802;2023-08-20T01:53:01;9.55;;;3.17;;
19808;SDS011;48538;32.784;-96.802;2023-08-20T01:55:30;5.40;;;3.20;;
19808;SDS011;48538;32.784;-96.802;2023-08-20T01:57:56;6.70;;;3.63;;
19808;SDS011;48538;32.784;-96.802;2023-08-20T02:00:23;10.55;;;3.92;;
19808;SDS011;48538;32.784;-96.802;2023-08-20T02:02:49;4.65;;;3.05;;
19808;SDS011;48538;32.784;-96.802;2023-08-20T02:05:15;5.30;;;3.35;;
19808;SDS011;48538;32.784;-96.802;2023-08-20T02:07:41;6.63;;;2.75;;
19808;SDS011;48538;32.784;-96.802;2023-08-20T02:10:08;9.27;;;3.45;;
19808;SDS011;48538;32.784;-96.802;2023-08-20T02:12:35;5.97;;;3.13;;
19808;SDS011;48538;32.784;-96.802;2023-08-20T02:15:02;4.57;;;2.70;;
19808;SDS011;48538;32.784;-96.802;2023-08-20T02:17:29;9.00;;;3.15;;
19808;SDS011;48538;32.784;-96.802;2023-08-20T02:19:55;5.60;;;3.38;;
19808;SDS011;48538;32.784;-96.802;2023-08-20T02:22:21;5.72;;;3.28;;
19808;SDS011;48538;32.784;-96.802;2023-08-20T02:24:47;6.57;;;3.25;;
19808;SDS011;48538;32.784;-96.802;2023-08-20T02:27:14;5.60;;;3.05;;
19808;SDS011;48538;32.784;-96.802;2023-08-20T02:29:40;10.65;;;2.70;;
19808;SDS011;48538;32.784;-96.802;2023-08-20T02:32:06;6.20;;;3.03;;
19808;SDS011;48538;32.784;-96.802;2023-08-20T02:34:32;7.82;;;3.28;;
19808;SDS011;48538;32.784;-96.802;2023-08-20T02:36:58;8.23;;;3.40;;
19808;SDS011;48538;32.784;-96.802;2023-08-20T02:39:25;7.20;;;3.22;;
19808;SDS011;48538;32.784;-96.802;2023-08-20T02:41:51;6.35;;;3.17;;
19808;SDS011;48538;32.784;-96.802;2023-08-20T02:44:17;4.00;;;2.90;;
19808;SDS011;48538;32.784;-96.802;2023-08-20T02:46:43;5.72;;;3.20;;
19808;SDS011;48538;32.784;-96.802;2023-08-20T02:49:10;6.22;;;3.42;;
19808;SDS011;48538;32.784;-96.802;2023-08-20T02:51:36;5.32;;;3.17;;
19808;SDS011;48538;32.784;-96.802;2023-08-20T02:54:02;4.55;;;2.70;;
19808;SDS011;48538;32.784;-96.802;2023-08-20T02:56:29;6.55;;;2.97;;
19808;SDS011;48538;32.784;-96.802;2023-08-20T02:58:55;6.38;;;3.03;;
19808;SDS011;48538;32.784;-96.802;2023-08-20T03:01:22;11.32;;;3.45;;
19808;SDS011;48538;32.784;-96.802;2023-08-20T03:03:49;6.72;;;3.47;;
19808;SDS011;48538;32.784;-96.802;2023-08-20T03:06:15;8.02;;;3.63;;
19808;SDS011;48538;32.784;-96.802;2023-08-20T03:08:41;7.80;;;3.13;;
19808;SDS011;48538;32.784;-96.802;2023-08-20T03:11:08;3.95;;;2.80;;
19808;SDS011;48538;32.784;-96.802;2023-08-20T03:13:34;5.80;;;3.13;;
19808;SDS011;48538;32.784;-96.802;2023-08-20T03:16:01;5.90;;;3.40;;
19808;SDS011;48538;32.784;-96.802;2023-08-20T03:18:28;4.97;;;2.80;;
19808;SDS011;48538;32.784;-96.802;2023-08-20T03:20:55;6.35;;;3.88;;
19808;SDS011;48538;32.784;-96.802;2023-08-20T03:23:22;5.65;;;3.53;;
19808;SDS011;48538;32.784;-96.802;2023-08-20T03:25:49;7.15;;;3.55;;
19808;SDS011;48538;32.784;-96.802;2023-08-20T03:28:15;5.10;;;3.13;;
19808;SDS011;48538;32.784;-96.802;2023-08-20T03:30:43;9.77;;;3.15;;
19808;SDS011;48538;32.784;-96.802;2023-08-20T03:33:09;4.45;;;3.08;;
19808;SDS011;48538;32.784;-96.802;2023-08-20T03:35:35;3.63;;;2.50;;
19808;SDS011;48538;32.784;-96.802;2023-08-20T03:38:02;10.60;;;3.60;;
19808;SDS011;48538;32.784;-96.802;2023-08-20T03:40:28;16.80;;;9.30;;
19808;SDS011;48538;32.784;-96.802;2023-08-20T03:42:54;9.20;;;4.85;;
19808;SDS011;48538;32.784;-96.802;2023-08-20T03:45:20;6.60;;;4.07;;
19808;SDS011;48538;32.784;-96.802;2023-08-20T03:47:47;6.15;;;3.30;;
19808;SDS011;48538;32.784;-96.802;2023-08-20T03:50:13;7.82;;;3.60;;
19808;SDS011;48538;32.784;-96.802;2023-08-20T03:52:39;6.10;;;3.30;;
19808;SDS011;48538;32.784;-96.802;2023-08-20T03:55:05;7.22;;;3.20;;
19808;SDS011;48538;32.784;-96.802;2023-08-20T03:57:32;6.03;;;3.25;;
19808;SDS011;48538;32.784;-96.802;2023-08-20T03:59:58;7.10;;;3.08;;
19808;SDS011;48538;32.784;-96.802;2023-08-20T04:02:24;10.40;;;3.60;;
19808;SDS011;48538;32.784;-96.802;2023-08-20T04:04:50;4.57;;;2.80;;
19808;SDS011;48538;32.784;-96.802;2023-08-20T04:07:17;6.50;;;3.33;;
19808;SDS011;48538;32.784;-96.802;2023-08-20T04:09:44;6.28;;;3.08;;
19808;SDS011;48538;32.784;-96.802;2023-08-20T04:12:10;5.10;;;3.10;;
19808;SDS011;48538;32.784;-96.802;2023-08-20T04:14:36;9.20;;;3.25;;
19808;SDS011;48538;32.784;-96.802;2023-08-20T04:17:02;6.63;;;3.15;;
19808;SDS011;48538;32.784;-96.802;2023-08-20T04:19:28;8.25;;;3.10;;
19808;SDS011;48538;32.784;-96.802;2023-08-20T04:21:55;5.70;;;2.97;;
19808;SDS011;48538;32.784;-96.802;2023-08-20T04:24:21;5.30;;;2.67;;
19808;SDS011;48538;32.784;-96.802;2023-08-20T04:26:47;6.05;;;3.30;;
19808;SDS011;48538;32.784;-96.802;2023-08-20T04:29:13;11.20;;;2.95;;
19808;SDS011;48538;32.784;-96.802;2023-08-20T04:31:40;6.57;;;3.30;;
19808;SDS011;48538;32.784;-96.802;2023-08-20T04:34:06;7.47;;;3.58;;
19808;SDS011;48538;32.784;-96.802;2023-08-20T04:36:32;4.93;;;3.40;;
19808;SDS011;48538;32.784;-96.802;2023-08-20T04:38:58;12.35;;;3.45;;
19808;SDS011;48538;32.784;-96.802;2023-08-20T04:41:24;4.90;;;3.30;;
19808;SDS011;48538;32.784;-96.802;2023-08-20T04:43:51;6.97;;;3.53;;
19808;SDS011;48538;32.784;-96.802;2023-08-20T04:46:17;6.53;;;3.10;;
19808;SDS011;48538;32.784;-96.802;2023-08-20T04:48:44;4.70;;;3.13;;
19808;SDS011;48538;32.784;-96.802;2023-08-20T04:51:10;12.85;;;3.40;;
19808;SDS011;48538;32.784;-96.802;2023-08-20T04:53:36;6.90;;;3.65;;
19808;SDS011;48538;32.784;-96.802;2023-08-20T04:56:02;8.15;;;3.20;;
19808;SDS011;48538;32.784;-96.802;2023-08-20T04:58:29;6.45;;;3.33;;
19808;SDS011;48538;32.784;-96.802;2023-08-20T05:00:55;6.32;;;3.28;;
19808;SDS011;48538;32.784;-96.802;2023-08-20T05:03:21;7.80;;;3.33;;
19808;SDS011;48538;32.784;-96.802;2023-08-20T05:05:48;8.35;;;3.10;;
19808;SDS011;48538;32.784;-96.802;2023-08-20T05:08:15;11.35;;;4.18;;
19808;SDS011;48538;32.784;-96.802;2023-08-20T05:10:42;8.45;;;3.55;;
19808;SDS011;48538;32.784;-96.802;2023-08-20T05:13:08;8.45;;;3.28;;
19808;SDS011;48538;32.784;-96.802;2023-08-20T05:15:34;7.40;;;3.90;;
19808;SDS011;48538;32.784;-96.802;2023-08-20T05:18:01;4.07;;;3.60;;
19808;SDS011;48538;32.784;-96.802;2023-08-20T05:20:27;8.57;;;3.28;;
19808;SDS011;48538;32.784;-96.802;2023-08-20T05:22:53;7.85;;;3.90;;
19808;SDS011;48538;32.784;-96.802;2023-08-20T05:25:19;7.70;;;3.38;;
19808;SDS011;48538;32.784;-96.802;2023-08-20T05:27:45;8.27;;;3.33;;
19808;SDS011;48538;32.784;-96.802;2023-08-20T05:30:12;8.38;;;3.63;;
19808;SDS011;48538;32.784;-96.802;2023-08-20T05:32:38;4.70;;;3.10;;
19808;SDS011;48538;32.784;-96.802;2023-08-20T05:35:05;4.60;;;2.88;;
19808;SDS011;48538;32.784;-96.802;2023-08-20T05:37:31;5.68;;;3.30;;
19808;SDS011;48538;32.784;-96.802;2023-08-20T05:39:57;6.18;;;3.05;;
19808;SDS011;48538;32.784;-96.802;2023-08-20T05:42:24;6.00;;;3.25;;
19808;SDS011;48538;32.784;-96.802;2023-08-20T05:44:50;6.72;;;3.05;;
19808;SDS011;48538;32.784;-96.802;2023-08-20T05:47:16;9.43;;;3.30;;
19808;SDS011;48538;32.784;-96.802;2023-08-20T05:49:42;5.40;;;3.45;;
19808;SDS011;48538;32.784;-96.802;2023-08-20T05:52:09;6.93;;;3.20;;
19808;SDS011;48538;32.784;-96.802;2023-08-20T05:54:35;6.72;;;3.20;;
19808;SDS011;48538;32.784;-96.802;2023-08-20T05:57:01;10.88;;;3.75;;
19808;SDS011;48538;32.784;-96.802;2023-08-20T05:59:28;5.53;;;3.30;;
19808;SDS011;48538;32.784;-96.802;2023-08-20T06:01:54;6.03;;;3.63;;
19808;SDS011;48538;32.784;-96.802;2023-08-20T06:04:20;5.75;;;3.20;;
19808;SDS011;48538;32.784;-96.802;2023-08-20T06:06:47;6.03;;;3.05;;
19808;SDS011;48538;32.784;-96.802;2023-08-20T06:09:13;6.70;;;3.30;;
19808;SDS011;48538;32.784;-96.802;2023-08-20T06:11:39;5.20;;;3.22;;
19808;SDS011;48538;32.784;-96.802;2023-08-20T06:14:05;4.93;;;3.05;;
19808;SDS011;48538;32.784;-96.802;2023-08-20T06:16:31;5.30;;;2.97;;
19808;SDS011;48538;32.784;-96.802;2023-08-20T06:18:58;4.65;;;2.97;;
19808;SDS011;48538;32.784;-96.802;2023-08-20T06:21:24;7.13;;;3.38;;
19808;SDS011;48538;32.784;-96.802;2023-08-20T06:23:50;7.07;;;3.20;;
19808;SDS011;48538;32.784;-96.802;2023-08-20T06:26:17;5.10;;;3.00;;
19808;SDS011;48538;32.784;-96.802;2023-08-20T06:28:43;5.40;;;3.20;;
19808;SDS011;48538;32.784;-96.802;2023-08-20T06:31:09;9.15;;;4.18;;
19808;SDS011;48538;32.784;-96.802;2023-08-20T06:33:36;4.13;;;3.10;;
19808;SDS011;48538;32.784;-96.802;2023-08-20T06:36:02;7.82;;;3.55;;
19808;SDS011;48538;32.784;-96.802;2023-08-20T06:38:28;5.50;;;3.20;;
19808;SDS011;48538;32.784;-96.802;2023-08-20T06:40:55;7.47;;;3.40;;
19808;SDS011;48538;32.784;-96.802;2023-08-20T06:43:22;3.78;;;2.85;;
19808;SDS011;48538;32.784;-96.802;2023-08-20T06:45:48;4.85;;;3.17;;
19808;SDS011;48538;32.784;-96.802;2023-08-20T06:48:14;4.72;;;3.13;;
19808;SDS011;48538;32.784;-96.802;2023-08-20T06:50:41;11.80;;;3.42;;
19808;SDS011;48538;32.784;-96.802;2023-08-20T06:53:08;4.03;;;2.53;;
19808;SDS011;48538;32.784;-96.802;2023-08-20T06:55:34;6.82;;;2.95;;
19808;SDS011;48538;32.784;-96.802;2023-08-20T06:58:01;5.55;;;3.22;;
19808;SDS011;48538;32.784;-96.802;2023-08-20T07:00:30;5.85;;;3.20;;
19808;SDS011;48538;32.784;-96.802;2023-08-20T07:02:57;5.65;;;3.90;;
19808;SDS011;48538;32.784;-96.802;2023-08-20T07:05:23;5.53;;;3.25;;
19808;SDS011;48538;32.784;-96.802;2023-08-20T07:07:49;4.78;;;3.28;;
19808;SDS011;48538;32.784;-96.802;2023-08-20T07:10:15;6.95;;;3.53;;
19808;SDS011;48538;32.784;-96.802;2023-08-20T07:12:42;11.35;;;3.65;;
19808;SDS011;48538;32.784;-96.802;2023-08-20T07:15:08;7.25;;;3.65;;
19808;SDS011;48538;32.784;-96.802;2023-08-20T07:17:34;7.07;;;3.63;;
19808;SDS011;48538;32.784;-96.802;2023-08-20T07:20:01;8.88;;;3.63;;
19808;SDS011;48538;32.784;-96.802;2023-08-20T07:22:28;9.85;;;3.60;;
19808;SDS011;48538;32.784;-96.802;2023-08-20T07:24:54;7.05;;;3.30;;
19808;SDS011;48538;32.784;-96.802;2023-08-20T07:27:20;5.40;;;3.22;;
19808;SDS011;48538;32.784;-96.802;2023-08-20T07:29:47;6.53;;;2.97;;
19808;SDS011;48538;32.784;-96.802;2023-08-20T07:32:13;7.68;;;3.00;;
19808;SDS011;48538;32.784;-96.802;2023-08-20T07:34:39;7.57;;;2.90;;
19808;SDS011;48538;32.784;-96.802;2023-08-20T07:37:05;5.20;;;2.92;;
19808;SDS011;48538;32.784;-96.802;2023-08-20T07:39:32;7.82;;;2.95;;
19808;SDS011;48538;32.784;-96.802;2023-08-20T07:41:58;4.68;;;3.10;;
19808;SDS011;48538;32.784;-96.802;2023-08-20T07:44:24;7.15;;;2.88;;
19808;SDS011;48538;32.784;-96.802;2023-08-20T07:46:50;4.00;;;2.80;;
19808;SDS011;48538;32.784;-96.802;2023-08-20T07:49:16;8.32;;;3.58;;
19808;SDS011;48538;32.784;-96.802;2023-08-20T07:51:43;6.80;;;3.28;;
19808;SDS011;48538;32.784;-96.802;2023-08-20T07:54:09;8.63;;;2.92;;
19808;SDS011;48538;32.784;-96.802;2023-08-20T07:56:35;5.40;;;3.00;;
19808;SDS011;48538;32.784;-96.802;2023-08-20T07:59:01;6.95;;;3.55;;
19808;SDS011;48538;32.784;-96.802;2023-08-20T08:01:28;9.15;;;2.80;;
19808;SDS011;48538;32.784;-96.802;2023-08-20T08:03:55;4.30;;;2.70;;
19808;SDS011;48538;32.784;-96.802;2023-08-20T08:06:21;6.80;;;3.28;;
19808;SDS011;48538;32.784;-96.802;2023-08-20T08:08:49;4.85;;;3.35;;
19808;SDS011;48538;32.784;-96.802;2023-08-20T08:11:15;4.80;;;2.83;;
19808;SDS011;48538;32.784;-96.802;2023-08-20T08:13:41;7.63;;;3.17;;
19808;SDS011;48538;32.784;-96.802;2023-08-20T08:16:07;3.67;;;2.65;;
19808;SDS011;48538;32.784;-96.802;2023-08-20T08:18:33;6.10;;;3.25;;
19808;SDS011;48538;32.784;-96.802;2023-08-20T08:21:00;6.68;;;2.67;;
19808;SDS011;48538;32.784;-96.802;2023-08-20T08:23:26;7.70;;;3.15;;
19808;SDS011;48538;32.784;-96.802;2023-08-20T08:25:52;7.45;;;3.08;;
19808;SDS011;48538;32.784;-96.802;2023-08-20T08:28:18;4.35;;;2.60;;
19808;SDS011;48538;32.784;-96.802;2023-08-20T08:30:45;7.30;;;2.85;;
19808;SDS011;48538;32.784;-96.802;2023-08-20T08:33:11;4.85;;;2.60;;
19808;SDS011;48538;32.784;-96.802;2023-08-20T08:35:37;5.03;;;2.60;;
19808;SDS011;48538;32.784;-96.802;2023-08-20T08:38:03;6.05;;;3.15;;
19808;SDS011;48538;32.784;-96.802;2023-08-20T08:40:30;9.98;;;2.90;;
19808;SDS011;48538;32.784;-96.802;2023-08-20T08:42:56;6.18;;;3.20;;
19808;SDS011;48538;32.784;-96.802;2023-08-20T08:45:23;7.95;;;3.22;;
19808;SDS011;48538;32.784;-96.802;2023-08-20T08:47:51;11.50;;;3.13;;
19808;SDS011;48538;32.784;-96.802;2023-08-20T08:50:19;4.22;;;2.63;;
19808;SDS011;48538;32.784;-96.802;2023-08-20T08:52:46;6.25;;;2.90;;
19808;SDS011;48538;32.784;-96.802;2023-08-20T08:55:16;7.03;;;2.83;;
19808;SDS011;48538;32.784;-96.802;2023-08-20T08:57:42;4.75;;;2.63;;
19808;SDS011;48538;32.784;-96.802;2023-08-20T09:00:09;9.00;;;3.58;;
19808;SDS011;48538;32.784;-96.802;2023-08-20T09:02:35;4.45;;;3.03;;
19808;SDS011;48538;32.784;-96.802;2023-08-20T09:05:01;6.13;;;3.33;;
19808;SDS011;48538;32.784;-96.802;2023-08-20T09:07:28;6.35;;;2.38;;
19808;SDS011;48538;32.784;-96.802;2023-08-20T09:09:57;4.70;;;2.45;;
19808;SDS011;48538;32.784;-96.802;2023-08-20T09:12:27;4.53;;;2.53;;
19808;SDS011;48538;32.784;-96.802;2023-08-20T09:14:59;3.17;;;2.30;;
19808;SDS011;48538;32.784;-96.802;2023-08-20T09:17:25;6.10;;;2.92;;
19808;SDS011;48538;32.784;-96.802;2023-08-20T09:19:53;4.28;;;2.40;;
19808;SDS011;48538;32.784;-96.802;2023-08-20T09:22:23;3.65;;;2.35;;
19808;SDS011;48538;32.784;-96.802;2023-08-20T09:24:54;6.57;;;3.00;;
19808;SDS011;48538;32.784;-96.802;2023-08-20T09:27:21;3.92;;;2.80;;
19808;SDS011;48538;32.784;-96.802;2023-08-20T09:29:52;8.63;;;2.70;;
19808;SDS011;48538;32.784;-96.802;2023-08-20T09:32:25;2.92;;;2.55;;
19808;SDS011;48538;32.784;-96.802;2023-08-20T09:34:53;4.93;;;2.50;;
19808;SDS011;48538;32.784;-96.802;2023-08-20T09:37:22;4.10;;;2.30;;
19808;SDS011;48538;32.784;-96.802;2023-08-20T09:39:49;5.80;;;2.80;;
19808;SDS011;48538;32.784;-96.802;2023-08-20T09:42:16;5.25;;;2.50;;
19808;SDS011;48538;32.784;-96.802;2023-08-20T09:44:44;7.15;;;2.40;;
19808;SDS011;48538;32.784;-96.802;2023-08-20T09:47:12;5.20;;;2.03;;
19808;SDS011;48538;32.784;-96.802;2023-08-20T09:49:40;6.63;;;2.08;;
19808;SDS011;48538;32.784;-96.802;2023-08-20T09:52:08;4.78;;;2.22;;
19808;SDS011;48538;32.784;-96.802;2023-08-20T09:54:50;4.30;;;2.33;;
19808;SDS011;48538;32.784;-96.802;2023-08-20T09:57:34;6.95;;;2.60;;
19808;SDS011;48538;32.784;-96.802;2023-08-20T10:00:03;5.65;;;2.33;;
19808;SDS011;48538;32.784;-96.802;2023-08-20T10:02:37;5.50;;;2.00;;
19808;SDS011;48538;32.784;-96.802;2023-08-20T10:05:07;4.93;;;1.90;;
19808;SDS011;48538;32.784;-96.802;2023-08-20T10:07:35;4.50;;;1.90;;
19808;SDS011;48538;32.784;-96.802;2023-08-20T10:10:03;3.35;;;1.70;;
19808;SDS011;48538;32.784;-96.802;2023-08-20T10:12:31;6.30;;;2.13;;
19808;SDS011;48538;32.784;-96.802;2023-08-20T10:15:00;7.43;;;2.53;;
19808;SDS011;48538;32.784;-96.802;2023-08-20T10:17:30;3.25;;;2.20;;
19808;SDS011;48538;32.784;-96.802;2023-08-20T10:20:03;5.15;;;2.08;;
19808;SDS011;48538;32.784;-96.802;2023-08-20T10:25:21;4.15;;;2.38;;
19808;SDS011;48538;32.784;-96.802;2023-08-20T10:27:48;2.88;;;2.33;;
19808;SDS011;48538;32.784;-96.802;2023-08-20T10:30:19;7.20;;;3.03;;
19808;SDS011;48538;32.784;-96.802;2023-08-20T10:32:51;2.55;;;2.00;;
19808;SDS011;48538;32.784;-96.802;2023-08-20T10:35:22;5.10;;;2.42;;
19808;SDS011;48538;32.784;-96.802;2023-08-20T10:38:15;4.28;;;2.20;;
19808;SDS011;48538;32.784;-96.802;2023-08-20T10:40:49;4.18;;;2.28;;
19808;SDS011;48538;32.784;-96.802;2023-08-20T10:43:28;2.47;;;1.83;;
19808;SDS011;48538;32.784;-96.802;2023-08-20T10:46:18;5.75;;;2.30;;
19808;SDS011;48538;32.784;-96.802;2023-08-20T10:48:50;6.05;;;2.40;;
19808;SDS011;48538;32.784;-96.802;2023-08-20T10:51:17;3.65;;;1.80;;
19808;SDS011;48538;32.784;-96.802;2023-08-20T10:56:39;6.03;;;1.95;;
19808;SDS011;48538;32.784;-96.802;2023-08-20T10:59:29;5.70;;;2.05;;
19808;SDS011;48538;32.784;-96.802;2023-08-20T11:01:56;4.05;;;2.25;;
19808;SDS011;48538;32.784;-96.802;2023-08-20T11:04:32;4.60;;;2.20;;
19808;SDS011;48538;32.784;-96.802;2023-08-20T11:06:58;6.75;;;1.77;;
19808;SDS011;48538;32.784;-96.802;2023-08-20T11:09:26;3.88;;;1.73;;
19808;SDS011;48538;32.784;-96.802;2023-08-20T11:11:53;5.65;;;2.13;;
19808;SDS011;48538;32.784;-96.802;2023-08-20T11:14:20;3.70;;;1.83;;
19808;SDS011;48538;32.784;-96.802;2023-08-20T11:16:47;6.40;;;1.80;;
19808;SDS011;48538;32.784;-96.802;2023-08-20T11:19:14;6.20;;;2.10;;
19808;SDS011;48538;32.784;-96.802;2023-08-20T11:21:45;3.88;;;1.83;;
19808;SDS011;48538;32.784;-96.802;2023-08-20T11:24:13;5.10;;;2.60;;
19808;SDS011;48538;32.784;-96.802;2023-08-20T11:26:40;8.52;;;2.10;;
19808;SDS011;48538;32.784;-96.802;2023-08-20T11:29:13;5.53;;;1.88;;
19808;SDS011;48538;32.784;-96.802;2023-08-20T11:31:45;4.65;;;2.20;;
19808;SDS011;48538;32.784;-96.802;2023-08-20T11:34:11;3.88;;;2.10;;
19808;SDS011;48538;32.784;-96.802;2023-08-20T11:36:38;4.43;;;2.20;;
19808;SDS011;48538;32.784;-96.802;2023-08-20T11:39:05;3.53;;;2.20;;
19808;SDS011;48538;32.784;-96.802;2023-08-20T11:41:35;5.30;;;2.10;;
19808;SDS011;48538;32.784;-96.802;2023-08-20T11:44:02;5.80;;;2.65;;
19808;SDS011;48538;32.784;-96.802;2023-08-20T11:46:28;5.50;;;2.33;;
19808;SDS011;48538;32.784;-96.802;2023-08-20T11:49:13;6.03;;;2.38;;
19808;SDS011;48538;32.784;-96.802;2023-08-20T11:51:43;5.47;;;2.17;;
19808;SDS011;48538;32.784;-96.802;2023-08-20T11:54:14;7.43;;;2.50;;
19808;SDS011;48538;32.784;-96.802;2023-08-20T11:56:45;4.35;;;1.83;;
19808;SDS011;48538;32.784;-96.802;2023-08-20T11:59:13;6.05;;;2.05;;
19808;SDS011;48538;32.784;-96.802;2023-08-20T12:01:40;5.70;;;2.10;;
19808;SDS011;48538;32.784;-96.802;2023-08-20T12:04:07;6.65;;;1.73;;
19808;SDS011;48538;32.784;-96.802;2023-08-20T12:06:34;6.50;;;2.20;;
19808;SDS011;48538;32.784;-96.802;2023-08-20T12:09:02;3.88;;;2.05;;
19808;SDS011;48538;32.784;-96.802;2023-08-20T12:11:48;5.72;;;2.30;;
19808;SDS011;48538;32.784;-96.802;2023-08-20T12:14:16;4.97;;;2.50;;
19808;SDS011;48538;32.784;-96.802;2023-08-20T12:16:45;3.83;;;2.33;;
19808;SDS011;48538;32.784;-96.802;2023-08-20T12:19:11;5.68;;;2.40;;
19808;SDS011;48538;32.784;-96.802;2023-08-20T12:21:39;6.35;;;2.65;;
19808;SDS011;48538;32.784;-96.802;2023-08-20T12:24:08;5.60;;;2.80;;
19808;SDS011;48538;32.784;-96.802;2023-08-20T12:26:35;6.03;;;2.40;;
19808;SDS011;48538;32.784;-96.802;2023-08-20T12:29:02;6.55;;;2.08;;
19808;SDS011;48538;32.784;-96.802;2023-08-20T12:31:28;6.55;;;2.63;;
19808;SDS011;48538;32.784;-96.802;2023-08-20T12:33:55;6.00;;;2.60;;
19808;SDS011;48538;32.784;-96.802;2023-08-20T12:36:21;7.20;;;2.97;;
19808;SDS011;48538;32.784;-96.802;2023-08-20T12:38:47;6.45;;;2.80;;
19808;SDS011;48538;32.784;-96.802;2023-08-20T12:41:13;7.32;;;2.38;;
19808;SDS011;48538;32.784;-96.802;2023-08-20T12:43:40;5.60;;;2.22;;
19808;SDS011;48538;32.784;-96.802;2023-08-20T12:46:06;7.25;;;2.40;;
19808;SDS011;48538;32.784;-96.802;2023-08-20T12:48:32;7.03;;;2.42;;
19808;SDS011;48538;32.784;-96.802;2023-08-20T12:50:59;4.53;;;2.40;;
19808;SDS011;48538;32.784;-96.802;2023-08-20T12:53:25;4.10;;;2.50;;
19808;SDS011;48538;32.784;-96.802;2023-08-20T12:55:52;4.32;;;3.10;;
19808;SDS011;48538;32.784;-96.802;2023-08-20T12:58:18;7.35;;;2.63;;
19808;SDS011;48538;32.784;-96.802;2023-08-20T13:00:44;7.13;;;3.00;;
19808;SDS011;48538;32.784;-96.802;2023-08-20T13:03:10;6.55;;;2.60;;
19808;SDS011;48538;32.784;-96.802;2023-08-20T13:05:37;5.93;;;2.97;;
19808;SDS011;48538;32.784;-96.802;2023-08-20T13:08:04;5.47;;;2.58;;
19808;SDS011;48538;32.784;-96.802;2023-08-20T13:10:31;7.78;;;2.72;;
19808;SDS011;48538;32.784;-96.802;2023-08-20T13:12:59;4.88;;;2.75;;
19808;SDS011;48538;32.784;-96.802;2023-08-20T13:15:26;10.18;;;3.95;;
19808;SDS011;48538;32.784;-96.802;2023-08-20T13:17:53;7.53;;;2.47;;
19808;SDS011;48538;32.784;-96.802;2023-08-20T13:20:20;7.07;;;2.92;;
19808;SDS011;48538;32.784;-96.802;2023-08-20T13:22:48;7.97;;;2.67;;
19808;SDS011;48538;32.784;-96.802;2023-08-20T13:25:16;6.15;;;3.25;;
19808;SDS011;48538;32.784;-96.802;2023-08-20T13:27:42;5.25;;;2.83;;
19808;SDS011;48538;32.784;-96.802;2023-08-20T13:30:09;7.07;;;3.03;;
19808;SDS011;48538;32.784;-96.802;2023-08-20T13:32:36;6.25;;;2.70;;
19808;SDS011;48538;32.784;-96.802;2023-08-20T13:35:03;6.25;;;3.30;;
19808;SDS011;48538;32.784;-96.802;2023-08-20T13:37:30;6.53;;;3.20;;
19808;SDS011;48538;32.784;-96.802;2023-08-20T13:39:57;4.43;;;2.72;;
19808;SDS011;48538;32.784;-96.802;2023-08-20T13:42:23;4.53;;;2.35;;
19808;SDS011;48538;32.784;-96.802;2023-08-20T13:44:50;5.20;;;2.50;;
19808;SDS011;48538;32.784;-96.802;2023-08-20T13:47:17;3.63;;;2.67;;
19808;SDS011;48538;32.784;-96.802;2023-08-20T13:49:43;5.05;;;2.40;;
19808;SDS011;48538;32.784;-96.802;2023-08-20T13:52:10;5.55;;;2.55;;
19808;SDS011;48538;32.784;-96.802;2023-08-20T13:54:36;5.07;;;2.40;;
19808;SDS011;48538;32.784;-96.802;2023-08-20T13:57:02;10.55;;;3.58;;
19808;SDS011;48538;32.784;-96.802;2023-08-20T13:59:32;4.93;;;3.20;;
19808;SDS011;48538;32.784;-96.802;2023-08-20T14:01:58;7.30;;;3.00;;
19808;SDS011;48538;32.784;-96.802;2023-08-20T14:04:25;4.47;;;2.53;;
19808;SDS011;48538;32.784;-96.802;2023-08-20T14:06:51;5.13;;;2.40;;
19808;SDS011;48538;32.784;-96.802;2023-08-20T14:09:17;5.28;;;2.85;;
19808;SDS011;48538;32.784;-96.802;2023-08-20T14:11:44;5.50;;;2.63;;
19808;SDS011;48538;32.784;-96.802;2023-08-20T14:14:11;5.60;;;2.25;;
19808;SDS011;48538;32.784;-96.802;2023-08-20T14:16:37;6.95;;;2.97;;
19808;SDS011;48538;32.784;-96.802;2023-08-20T14:19:04;4.22;;;2.60;;
19808;SDS011;48538;32.784;-96.802;2023-08-20T14:21:30;4.82;;;2.25;;
19808;SDS011;48538;32.784;-96.802;2023-08-20T14:23:56;3.45;;;2.60;;
19808;SDS011;48538;32.784;-96.802;2023-08-20T14:26:23;3.92;;;2.60;;
19808;SDS011;48538;32.784;-96.802;2023-08-20T14:28:49;4.53;;;2.90;;
19808;SDS011;48538;32.784;-96.802;2023-08-20T14:31:15;4.22;;;2.20;;
19808;SDS011;48538;32.784;-96.802;2023-08-20T14:33:45;7.32;;;2.20;;
19808;SDS011;48538;32.784;-96.802;2023-08-20T14:36:12;5.65;;;2.72;;